sensor_id;sensor_type;location;lat;lon;timestamp;P1;durP1;ratioP1;P2;durP2;ratioP2
6111;SDS011;3086;48.802;9.394;2023-02-14T00:01:11;25.40;;;15.80;;
6111;SDS011;3086;48.802;9.394;2023-02-14T00:04:33;27.93;;;15.73;;
6111;SDS011;3086;48.802;9.394;2023-02-14T00:07:57;28.70;;;16.70;;
6111;SDS011;3086;48.802;9.394;2023-02-14T00:11:19;31.77;;;17.00;;
6111;SDS011;3086;48.802;9.394;2023-02-14T00:14:42;36.93;;;21.33;;
6111;SDS011;3086;48.802;9.394;2023-02-14T00:18:36;36.97;;;20.30;;
6111;SDS011;3086;48.802;9.394;2023-02-14T00:22:15;31.63;;;17.03;;
6111;SDS011;3086;48.802;9.394;2023-02-14T00:25:36;28.80;;;16.73;;
6111;SDS011;3086;48.802;9.394;2023-02-14T00:28:58;25.90;;;15.23;;
6111;SDS011;3086;48.802;9.394;2023-02-14T00:32:20;27.77;;;16.90;;
6111;SDS011;3086;48.802;9.394;2023-02-14T00:35:42;31.37;;;16.00;;
6111;SDS011;3086;48.802;9.394;2023-02-14T00:39:04;27.80;;;16.40;;
6111;SDS011;3086;48.802;9.394;2023-02-14T00:42:26;30.30;;;16.20;;
6111;SDS011;3086;48.802;9.394;2023-02-14T00:45:48;29.70;;;18.00;;
6111;SDS011;3086;48.802;9.394;2023-02-14T00:49:11;33.40;;;18.77;;
6111;SDS011;3086;48.802;9.394;2023-02-14T00:52:32;38.77;;;19.37;;
6111;SDS011;3086;48.802;9.394;2023-02-14T00:55:53;33.87;;;18.27;;
6111;SDS011;3086;48.802;9.394;2023-02-14T00:59:15;31.20;;;17.90;;
6111;SDS011;3086;48.802;9.394;2023-02-14T01:02:36;30.07;;;18.43;;
6111;SDS011;3086;48.802;9.394;2023-02-14T01:05:59;34.20;;;18.27;;
6111;SDS011;3086;48.802;9.394;2023-02-14T01:09:21;29.97;;;16.83;;
6111;SDS011;3086;48.802;9.394;2023-02-14T01:12:43;27.63;;;16.33;;
6111;SDS011;3086;48.802;9.394;2023-02-14T01:16:05;32.10;;;17.40;;
6111;SDS011;3086;48.802;9.394;2023-02-14T01:19:27;34.67;;;17.47;;
6111;SDS011;3086;48.802;9.394;2023-02-14T01:22:50;31.80;;;16.40;;
6111;SDS011;3086;48.802;9.394;2023-02-14T01:26:12;29.53;;;17.27;;
6111;SDS011;3086;48.802;9.394;2023-02-14T01:29:34;30.60;;;16.77;;
6111;SDS011;3086;48.802;9.394;2023-02-14T01:32:56;24.83;;;15.77;;
6111;SDS011;3086;48.802;9.394;2023-02-14T01:36:19;30.70;;;16.63;;
6111;SDS011;3086;48.802;9.394;2023-02-14T01:39:42;26.83;;;15.67;;
6111;SDS011;3086;48.802;9.394;2023-02-14T01:43:04;31.20;;;15.97;;
6111;SDS011;3086;48.802;9.394;2023-02-14T01:46:26;25.00;;;14.73;;
6111;SDS011;3086;48.802;9.394;2023-02-14T01:49:50;28.00;;;16.17;;
6111;SDS011;3086;48.802;9.394;2023-02-14T01:53:14;30.57;;;16.67;;
6111;SDS011;3086;48.802;9.394;2023-02-14T01:56:38;27.10;;;16.97;;
6111;SDS011;3086;48.802;9.394;2023-02-14T02:00:02;31.17;;;17.60;;
6111;SDS011;3086;48.802;9.394;2023-02-14T02:03:43;32.80;;;17.90;;
6111;SDS011;3086;48.802;9.394;2023-02-14T02:07:09;31.30;;;17.60;;
6111;SDS011;3086;48.802;9.394;2023-02-14T02:10:32;34.53;;;17.33;;
6111;SDS011;3086;48.802;9.394;2023-02-14T02:13:55;34.83;;;17.40;;
6111;SDS011;3086;48.802;9.394;2023-02-14T02:17:19;31.37;;;16.97;;
6111;SDS011;3086;48.802;9.394;2023-02-14T02:20:50;32.40;;;17.63;;
6111;SDS011;3086;48.802;9.394;2023-02-14T02:24:35;31.67;;;17.90;;
6111;SDS011;3086;48.802;9.394;2023-02-14T02:28:07;30.10;;;17.17;;
6111;SDS011;3086;48.802;9.394;2023-02-14T02:31:46;33.77;;;18.10;;
6111;SDS011;3086;48.802;9.394;2023-02-14T02:35:29;34.83;;;18.97;;
6111;SDS011;3086;48.802;9.394;2023-02-14T02:39:03;31.80;;;16.90;;
6111;SDS011;3086;48.802;9.394;2023-02-14T02:42:32;33.20;;;18.00;;
6111;SDS011;3086;48.802;9.394;2023-02-14T02:45:59;29.10;;;16.10;;
6111;SDS011;3086;48.802;9.394;2023-02-14T02:49:42;28.10;;;16.07;;
6111;SDS011;3086;48.802;9.394;2023-02-14T02:53:25;27.13;;;16.27;;
6111;SDS011;3086;48.802;9.394;2023-02-14T02:56:51;26.77;;;16.77;;
6111;SDS011;3086;48.802;9.394;2023-02-14T03:00:15;26.57;;;16.00;;
6111;SDS011;3086;48.802;9.394;2023-02-14T03:03:39;27.27;;;17.03;;
6111;SDS011;3086;48.802;9.394;2023-02-14T03:07:31;33.03;;;17.80;;
6111;SDS011;3086;48.802;9.394;2023-02-14T03:10:56;31.90;;;17.30;;
6111;SDS011;3086;48.802;9.394;2023-02-14T03:14:18;30.00;;;16.33;;
6111;SDS011;3086;48.802;9.394;2023-02-14T03:17:43;30.10;;;17.13;;
6111;SDS011;3086;48.802;9.394;2023-02-14T03:21:13;27.93;;;15.47;;
6111;SDS011;3086;48.802;9.394;2023-02-14T03:24:43;31.20;;;16.97;;
6111;SDS011;3086;48.802;9.394;2023-02-14T03:28:10;34.97;;;17.83;;
6111;SDS011;3086;48.802;9.394;2023-02-14T03:31:35;29.83;;;16.63;;
6111;SDS011;3086;48.802;9.394;2023-02-14T03:35:04;33.87;;;17.73;;
6111;SDS011;3086;48.802;9.394;2023-02-14T03:38:33;31.10;;;17.70;;
6111;SDS011;3086;48.802;9.394;2023-02-14T03:41:59;30.10;;;17.67;;
6111;SDS011;3086;48.802;9.394;2023-02-14T03:45:26;30.10;;;16.30;;
6111;SDS011;3086;48.802;9.394;2023-02-14T03:48:50;28.50;;;17.13;;
6111;SDS011;3086;48.802;9.394;2023-02-14T03:52:12;29.03;;;16.70;;
6111;SDS011;3086;48.802;9.394;2023-02-14T03:55:36;33.90;;;18.37;;
6111;SDS011;3086;48.802;9.394;2023-02-14T03:59:02;34.63;;;17.80;;
6111;SDS011;3086;48.802;9.394;2023-02-14T04:02:28;32.17;;;17.00;;
6111;SDS011;3086;48.802;9.394;2023-02-14T04:05:52;33.33;;;17.63;;
6111;SDS011;3086;48.802;9.394;2023-02-14T04:09:14;32.87;;;17.23;;
6111;SDS011;3086;48.802;9.394;2023-02-14T04:12:35;33.67;;;17.70;;
6111;SDS011;3086;48.802;9.394;2023-02-14T04:15:57;27.00;;;16.60;;
6111;SDS011;3086;48.802;9.394;2023-02-14T04:19:19;36.40;;;18.60;;
6111;SDS011;3086;48.802;9.394;2023-02-14T04:22:43;36.03;;;18.07;;
6111;SDS011;3086;48.802;9.394;2023-02-14T04:26:05;34.87;;;17.20;;
6111;SDS011;3086;48.802;9.394;2023-02-14T04:29:26;34.03;;;19.33;;
6111;SDS011;3086;48.802;9.394;2023-02-14T04:32:48;32.63;;;17.63;;
6111;SDS011;3086;48.802;9.394;2023-02-14T04:36:11;32.63;;;17.40;;
6111;SDS011;3086;48.802;9.394;2023-02-14T04:39:33;32.47;;;17.20;;
6111;SDS011;3086;48.802;9.394;2023-02-14T04:42:54;30.83;;;17.67;;
6111;SDS011;3086;48.802;9.394;2023-02-14T04:46:16;30.30;;;17.47;;
6111;SDS011;3086;48.802;9.394;2023-02-14T04:49:38;31.50;;;17.37;;
6111;SDS011;3086;48.802;9.394;2023-02-14T04:53:00;34.90;;;20.30;;
6111;SDS011;3086;48.802;9.394;2023-02-14T04:56:22;27.97;;;16.67;;
6111;SDS011;3086;48.802;9.394;2023-02-14T04:59:45;35.27;;;17.80;;
6111;SDS011;3086;48.802;9.394;2023-02-14T05:03:06;34.57;;;19.67;;
6111;SDS011;3086;48.802;9.394;2023-02-14T05:06:28;29.53;;;17.30;;
6111;SDS011;3086;48.802;9.394;2023-02-14T05:09:50;36.10;;;19.63;;
6111;SDS011;3086;48.802;9.394;2023-02-14T05:13:12;39.03;;;20.80;;
6111;SDS011;3086;48.802;9.394;2023-02-14T05:16:33;38.30;;;18.97;;
6111;SDS011;3086;48.802;9.394;2023-02-14T05:19:55;32.33;;;17.37;;
6111;SDS011;3086;48.802;9.394;2023-02-14T05:23:16;29.53;;;17.93;;
6111;SDS011;3086;48.802;9.394;2023-02-14T05:26:39;36.67;;;19.57;;
6111;SDS011;3086;48.802;9.394;2023-02-14T05:30:01;37.87;;;19.40;;
6111;SDS011;3086;48.802;9.394;2023-02-14T05:33:22;34.83;;;17.67;;
6111;SDS011;3086;48.802;9.394;2023-02-14T05:36:44;32.70;;;17.13;;
6111;SDS011;3086;48.802;9.394;2023-02-14T05:40:06;33.00;;;17.63;;
6111;SDS011;3086;48.802;9.394;2023-02-14T05:43:30;33.23;;;17.30;;
6111;SDS011;3086;48.802;9.394;2023-02-14T05:46:52;33.73;;;18.90;;
6111;SDS011;3086;48.802;9.394;2023-02-14T05:50:13;36.87;;;20.20;;
6111;SDS011;3086;48.802;9.394;2023-02-14T05:53:35;38.17;;;20.67;;
6111;SDS011;3086;48.802;9.394;2023-02-14T05:56:57;39.83;;;20.43;;
6111;SDS011;3086;48.802;9.394;2023-02-14T06:00:21;32.33;;;18.93;;
6111;SDS011;3086;48.802;9.394;2023-02-14T06:03:43;37.00;;;19.53;;
6111;SDS011;3086;48.802;9.394;2023-02-14T06:07:05;34.10;;;18.60;;
6111;SDS011;3086;48.802;9.394;2023-02-14T06:10:26;43.97;;;21.87;;
6111;SDS011;3086;48.802;9.394;2023-02-14T06:13:48;36.60;;;19.80;;
6111;SDS011;3086;48.802;9.394;2023-02-14T06:17:11;40.53;;;19.70;;
6111;SDS011;3086;48.802;9.394;2023-02-14T06:20:32;35.23;;;20.13;;
6111;SDS011;3086;48.802;9.394;2023-02-14T06:23:54;30.77;;;17.67;;
6111;SDS011;3086;48.802;9.394;2023-02-14T06:27:16;39.27;;;21.17;;
6111;SDS011;3086;48.802;9.394;2023-02-14T06:30:37;34.80;;;18.67;;
6111;SDS011;3086;48.802;9.394;2023-02-14T06:34:00;34.97;;;20.03;;
6111;SDS011;3086;48.802;9.394;2023-02-14T06:37:22;46.07;;;25.97;;
6111;SDS011;3086;48.802;9.394;2023-02-14T06:40:43;31.40;;;18.97;;
6111;SDS011;3086;48.802;9.394;2023-02-14T06:44:05;32.50;;;17.43;;
6111;SDS011;3086;48.802;9.394;2023-02-14T06:47:27;34.00;;;17.50;;
6111;SDS011;3086;48.802;9.394;2023-02-14T06:50:50;32.47;;;19.03;;
6111;SDS011;3086;48.802;9.394;2023-02-14T06:54:12;33.70;;;19.23;;
6111;SDS011;3086;48.802;9.394;2023-02-14T06:57:33;65.33;;;31.03;;
6111;SDS011;3086;48.802;9.394;2023-02-14T07:00:55;57.33;;;25.53;;
6111;SDS011;3086;48.802;9.394;2023-02-14T07:04:17;62.80;;;28.77;;
6111;SDS011;3086;48.802;9.394;2023-02-14T07:07:40;49.70;;;25.27;;
6111;SDS011;3086;48.802;9.394;2023-02-14T07:11:01;43.57;;;23.40;;
6111;SDS011;3086;48.802;9.394;2023-02-14T07:14:23;47.77;;;25.27;;
6111;SDS011;3086;48.802;9.394;2023-02-14T07:17:44;47.30;;;25.47;;
6111;SDS011;3086;48.802;9.394;2023-02-14T07:21:06;43.67;;;22.60;;
6111;SDS011;3086;48.802;9.394;2023-02-14T07:24:29;35.57;;;20.57;;
6111;SDS011;3086;48.802;9.394;2023-02-14T07:27:50;44.87;;;23.07;;
6111;SDS011;3086;48.802;9.394;2023-02-14T07:31:12;38.47;;;20.80;;
6111;SDS011;3086;48.802;9.394;2023-02-14T07:34:33;43.73;;;24.70;;
6111;SDS011;3086;48.802;9.394;2023-02-14T07:37:55;70.47;;;30.97;;
6111;SDS011;3086;48.802;9.394;2023-02-14T07:41:17;31.67;;;18.73;;
6111;SDS011;3086;48.802;9.394;2023-02-14T07:44:39;43.77;;;21.63;;
6111;SDS011;3086;48.802;9.394;2023-02-14T07:48:01;36.83;;;19.47;;
6111;SDS011;3086;48.802;9.394;2023-02-14T07:51:23;31.23;;;18.17;;
6111;SDS011;3086;48.802;9.394;2023-02-14T07:54:44;30.87;;;18.53;;
6111;SDS011;3086;48.802;9.394;2023-02-14T07:58:07;30.80;;;16.43;;
6111;SDS011;3086;48.802;9.394;2023-02-14T08:01:29;24.33;;;15.17;;
6111;SDS011;3086;48.802;9.394;2023-02-14T08:04:51;26.10;;;16.80;;
6111;SDS011;3086;48.802;9.394;2023-02-14T08:08:12;27.43;;;17.73;;
6111;SDS011;3086;48.802;9.394;2023-02-14T08:11:34;30.20;;;18.60;;
6111;SDS011;3086;48.802;9.394;2023-02-14T08:15:14;31.33;;;18.33;;
6111;SDS011;3086;48.802;9.394;2023-02-14T08:18:53;32.27;;;18.23;;
6111;SDS011;3086;48.802;9.394;2023-02-14T08:22:15;26.03;;;18.30;;
6111;SDS011;3086;48.802;9.394;2023-02-14T08:25:38;25.17;;;16.57;;
6111;SDS011;3086;48.802;9.394;2023-02-14T08:29:00;29.77;;;18.47;;
6111;SDS011;3086;48.802;9.394;2023-02-14T08:32:23;29.60;;;19.17;;
6111;SDS011;3086;48.802;9.394;2023-02-14T08:35:44;31.97;;;21.47;;
6111;SDS011;3086;48.802;9.394;2023-02-14T08:39:06;28.77;;;19.93;;
6111;SDS011;3086;48.802;9.394;2023-02-14T08:42:28;29.37;;;19.47;;
6111;SDS011;3086;48.802;9.394;2023-02-14T08:45:51;25.07;;;16.83;;
6111;SDS011;3086;48.802;9.394;2023-02-14T08:49:14;32.30;;;19.70;;
6111;SDS011;3086;48.802;9.394;2023-02-14T08:52:35;27.60;;;19.07;;
6111;SDS011;3086;48.802;9.394;2023-02-14T08:56:00;27.60;;;18.27;;
6111;SDS011;3086;48.802;9.394;2023-02-14T08:59:22;24.13;;;17.73;;
6111;SDS011;3086;48.802;9.394;2023-02-14T09:02:44;28.73;;;19.23;;
6111;SDS011;3086;48.802;9.394;2023-02-14T09:06:07;25.53;;;16.67;;
6111;SDS011;3086;48.802;9.394;2023-02-14T09:09:30;26.40;;;18.33;;
6111;SDS011;3086;48.802;9.394;2023-02-14T09:12:52;23.00;;;18.37;;
6111;SDS011;3086;48.802;9.394;2023-02-14T09:16:14;22.93;;;17.23;;
6111;SDS011;3086;48.802;9.394;2023-02-14T09:19:37;25.33;;;17.73;;
6111;SDS011;3086;48.802;9.394;2023-02-14T09:23:00;21.13;;;16.03;;
6111;SDS011;3086;48.802;9.394;2023-02-14T09:26:21;21.67;;;14.93;;
6111;SDS011;3086;48.802;9.394;2023-02-14T09:29:43;19.87;;;15.53;;
6111;SDS011;3086;48.802;9.394;2023-02-14T09:33:04;18.20;;;13.70;;
6111;SDS011;3086;48.802;9.394;2023-02-14T09:36:26;19.90;;;14.97;;
6111;SDS011;3086;48.802;9.394;2023-02-14T09:40:07;21.57;;;15.73;;
6111;SDS011;3086;48.802;9.394;2023-02-14T09:43:30;20.27;;;14.67;;
6111;SDS011;3086;48.802;9.394;2023-02-14T09:46:55;19.33;;;14.47;;
6111;SDS011;3086;48.802;9.394;2023-02-14T09:50:21;17.50;;;13.47;;
6111;SDS011;3086;48.802;9.394;2023-02-14T09:53:45;17.53;;;13.90;;
6111;SDS011;3086;48.802;9.394;2023-02-14T09:57:10;19.17;;;14.53;;
6111;SDS011;3086;48.802;9.394;2023-02-14T10:00:35;19.17;;;14.10;;
6111;SDS011;3086;48.802;9.394;2023-02-14T10:07:49;20.87;;;14.70;;
6111;SDS011;3086;48.802;9.394;2023-02-14T10:11:17;20.40;;;14.60;;
6111;SDS011;3086;48.802;9.394;2023-02-14T10:14:43;19.90;;;15.23;;
6111;SDS011;3086;48.802;9.394;2023-02-14T10:18:07;20.50;;;15.37;;
6111;SDS011;3086;48.802;9.394;2023-02-14T10:21:33;19.07;;;14.90;;
6111;SDS011;3086;48.802;9.394;2023-02-14T10:25:00;18.10;;;14.30;;
6111;SDS011;3086;48.802;9.394;2023-02-14T10:28:23;19.57;;;14.90;;
6111;SDS011;3086;48.802;9.394;2023-02-14T10:31:50;19.40;;;14.53;;
6111;SDS011;3086;48.802;9.394;2023-02-14T10:35:20;20.87;;;14.67;;
6111;SDS011;3086;48.802;9.394;2023-02-14T10:38:45;20.90;;;15.20;;
6111;SDS011;3086;48.802;9.394;2023-02-14T10:42:12;19.17;;;14.23;;
6111;SDS011;3086;48.802;9.394;2023-02-14T10:45:41;18.90;;;13.80;;
6111;SDS011;3086;48.802;9.394;2023-02-14T10:49:11;28.50;;;18.10;;
6111;SDS011;3086;48.802;9.394;2023-02-14T10:52:39;17.97;;;14.27;;
6111;SDS011;3086;48.802;9.394;2023-02-14T10:56:05;90.67;;;63.33;;
6111;SDS011;3086;48.802;9.394;2023-02-14T10:59:30;18.40;;;14.00;;
6111;SDS011;3086;48.802;9.394;2023-02-14T11:02:55;17.67;;;13.90;;
6111;SDS011;3086;48.802;9.394;2023-02-14T11:06:20;16.30;;;14.10;;
6111;SDS011;3086;48.802;9.394;2023-02-14T11:09:41;16.77;;;12.83;;
6111;SDS011;3086;48.802;9.394;2023-02-14T11:13:03;20.07;;;15.93;;
6111;SDS011;3086;48.802;9.394;2023-02-14T11:16:47;17.90;;;13.87;;
6111;SDS011;3086;48.802;9.394;2023-02-14T11:20:20;17.60;;;13.37;;
6111;SDS011;3086;48.802;9.394;2023-02-14T11:23:48;20.30;;;14.60;;
6111;SDS011;3086;48.802;9.394;2023-02-14T11:27:16;19.73;;;14.67;;
6111;SDS011;3086;48.802;9.394;2023-02-14T11:30:38;16.63;;;14.13;;
6111;SDS011;3086;48.802;9.394;2023-02-14T11:34:01;17.53;;;13.83;;
6111;SDS011;3086;48.802;9.394;2023-02-14T11:37:26;20.03;;;14.90;;
6111;SDS011;3086;48.802;9.394;2023-02-14T11:40:53;18.80;;;14.13;;
6111;SDS011;3086;48.802;9.394;2023-02-14T11:44:16;18.97;;;14.43;;
6111;SDS011;3086;48.802;9.394;2023-02-14T11:47:41;18.13;;;13.77;;
6111;SDS011;3086;48.802;9.394;2023-02-14T11:51:03;18.73;;;14.00;;
6111;SDS011;3086;48.802;9.394;2023-02-14T11:54:28;18.83;;;14.60;;
6111;SDS011;3086;48.802;9.394;2023-02-14T11:57:54;18.17;;;13.23;;
6111;SDS011;3086;48.802;9.394;2023-02-14T12:01:20;18.07;;;13.33;;
6111;SDS011;3086;48.802;9.394;2023-02-14T12:04:43;18.57;;;15.13;;
6111;SDS011;3086;48.802;9.394;2023-02-14T12:08:05;16.63;;;13.27;;
6111;SDS011;3086;48.802;9.394;2023-02-14T12:11:28;16.50;;;13.60;;
6111;SDS011;3086;48.802;9.394;2023-02-14T12:14:53;18.03;;;13.63;;
6111;SDS011;3086;48.802;9.394;2023-02-14T12:18:48;17.93;;;13.57;;
6111;SDS011;3086;48.802;9.394;2023-02-14T12:22:13;16.90;;;12.70;;
6111;SDS011;3086;48.802;9.394;2023-02-14T12:25:39;15.93;;;13.23;;
6111;SDS011;3086;48.802;9.394;2023-02-14T12:29:05;17.17;;;14.37;;
6111;SDS011;3086;48.802;9.394;2023-02-14T12:32:33;15.67;;;13.57;;
6111;SDS011;3086;48.802;9.394;2023-02-14T12:35:58;16.57;;;12.90;;
6111;SDS011;3086;48.802;9.394;2023-02-14T12:39:25;17.13;;;12.87;;
6111;SDS011;3086;48.802;9.394;2023-02-14T12:42:59;15.20;;;13.33;;
6111;SDS011;3086;48.802;9.394;2023-02-14T12:46:35;15.93;;;12.77;;
6111;SDS011;3086;48.802;9.394;2023-02-14T12:50:14;13.70;;;12.13;;
6111;SDS011;3086;48.802;9.394;2023-02-14T12:53:43;14.57;;;12.87;;
6111;SDS011;3086;48.802;9.394;2023-02-14T12:57:11;13.80;;;11.13;;
6111;SDS011;3086;48.802;9.394;2023-02-14T13:00:42;14.13;;;11.53;;
6111;SDS011;3086;48.802;9.394;2023-02-14T13:04:13;15.17;;;12.90;;
6111;SDS011;3086;48.802;9.394;2023-02-14T13:07:57;16.13;;;12.47;;
6111;SDS011;3086;48.802;9.394;2023-02-14T13:11:29;17.67;;;13.77;;
6111;SDS011;3086;48.802;9.394;2023-02-14T13:14:57;18.40;;;11.93;;
6111;SDS011;3086;48.802;9.394;2023-02-14T13:18:31;14.80;;;12.27;;
6111;SDS011;3086;48.802;9.394;2023-02-14T13:21:56;14.83;;;12.53;;
6111;SDS011;3086;48.802;9.394;2023-02-14T13:25:22;18.00;;;13.03;;
6111;SDS011;3086;48.802;9.394;2023-02-14T13:28:52;15.73;;;13.10;;
6111;SDS011;3086;48.802;9.394;2023-02-14T13:32:17;14.80;;;12.17;;
6111;SDS011;3086;48.802;9.394;2023-02-14T13:35:40;17.80;;;13.20;;
6111;SDS011;3086;48.802;9.394;2023-02-14T13:39:02;17.33;;;13.37;;
6111;SDS011;3086;48.802;9.394;2023-02-14T13:46:16;17.77;;;13.07;;
6111;SDS011;3086;48.802;9.394;2023-02-14T13:49:39;16.37;;;13.03;;
6111;SDS011;3086;48.802;9.394;2023-02-14T13:53:09;16.07;;;13.87;;
6111;SDS011;3086;48.802;9.394;2023-02-14T13:56:32;17.33;;;14.53;;
6111;SDS011;3086;48.802;9.394;2023-02-14T14:04:00;20.77;;;14.67;;
6111;SDS011;3086;48.802;9.394;2023-02-14T14:07:25;24.17;;;20.37;;
6111;SDS011;3086;48.802;9.394;2023-02-14T14:10:50;18.37;;;14.47;;
6111;SDS011;3086;48.802;9.394;2023-02-14T14:22:00;22.97;;;16.90;;
6111;SDS011;3086;48.802;9.394;2023-02-14T14:25:29;20.40;;;15.83;;
6111;SDS011;3086;48.802;9.394;2023-02-14T14:28:51;19.97;;;15.37;;
6111;SDS011;3086;48.802;9.394;2023-02-14T14:32:15;18.07;;;15.00;;
6111;SDS011;3086;48.802;9.394;2023-02-14T14:35:50;22.70;;;16.77;;
6111;SDS011;3086;48.802;9.394;2023-02-14T14:39:22;20.30;;;15.80;;
6111;SDS011;3086;48.802;9.394;2023-02-14T14:42:45;22.63;;;18.23;;
6111;SDS011;3086;48.802;9.394;2023-02-14T14:46:09;23.40;;;16.97;;
6111;SDS011;3086;48.802;9.394;2023-02-14T14:49:32;25.83;;;20.07;;
6111;SDS011;3086;48.802;9.394;2023-02-14T14:52:54;23.83;;;15.87;;
6111;SDS011;3086;48.802;9.394;2023-02-14T14:56:20;19.43;;;15.83;;
6111;SDS011;3086;48.802;9.394;2023-02-14T14:59:44;17.43;;;15.27;;
6111;SDS011;3086;48.802;9.394;2023-02-14T15:03:12;21.17;;;16.20;;
6111;SDS011;3086;48.802;9.394;2023-02-14T15:06:36;21.03;;;15.73;;
6111;SDS011;3086;48.802;9.394;2023-02-14T15:09:58;19.33;;;14.60;;
6111;SDS011;3086;48.802;9.394;2023-02-14T15:13:20;19.27;;;16.50;;
6111;SDS011;3086;48.802;9.394;2023-02-14T15:17:06;25.40;;;19.90;;
6111;SDS011;3086;48.802;9.394;2023-02-14T15:20:33;22.43;;;18.27;;
6111;SDS011;3086;48.802;9.394;2023-02-14T15:23:55;20.57;;;15.77;;
6111;SDS011;3086;48.802;9.394;2023-02-14T15:27:19;22.73;;;17.33;;
6111;SDS011;3086;48.802;9.394;2023-02-14T15:30:43;20.80;;;15.80;;
6111;SDS011;3086;48.802;9.394;2023-02-14T15:34:05;22.10;;;16.90;;
6111;SDS011;3086;48.802;9.394;2023-02-14T15:37:27;20.30;;;16.57;;
6111;SDS011;3086;48.802;9.394;2023-02-14T15:40:49;22.20;;;17.50;;
6111;SDS011;3086;48.802;9.394;2023-02-14T15:44:16;22.63;;;18.37;;
6111;SDS011;3086;48.802;9.394;2023-02-14T15:47:40;20.70;;;16.83;;
6111;SDS011;3086;48.802;9.394;2023-02-14T15:51:02;22.77;;;17.57;;
6111;SDS011;3086;48.802;9.394;2023-02-14T15:54:27;25.90;;;19.23;;
6111;SDS011;3086;48.802;9.394;2023-02-14T15:57:53;32.83;;;22.30;;
6111;SDS011;3086;48.802;9.394;2023-02-14T16:01:18;24.30;;;19.47;;
6111;SDS011;3086;48.802;9.394;2023-02-14T16:04:41;25.57;;;20.83;;
6111;SDS011;3086;48.802;9.394;2023-02-14T16:08:04;23.63;;;20.23;;
6111;SDS011;3086;48.802;9.394;2023-02-14T16:11:28;25.07;;;19.30;;
6111;SDS011;3086;48.802;9.394;2023-02-14T16:14:57;23.40;;;17.50;;
6111;SDS011;3086;48.802;9.394;2023-02-14T16:18:31;26.43;;;18.67;;
6111;SDS011;3086;48.802;9.394;2023-02-14T16:21:55;22.83;;;17.87;;
6111;SDS011;3086;48.802;9.394;2023-02-14T16:25:17;25.23;;;17.63;;
6111;SDS011;3086;48.802;9.394;2023-02-14T16:28:39;23.67;;;17.63;;
6111;SDS011;3086;48.802;9.394;2023-02-14T16:32:08;22.23;;;18.00;;
6111;SDS011;3086;48.802;9.394;2023-02-14T16:35:31;23.47;;;18.17;;
6111;SDS011;3086;48.802;9.394;2023-02-14T16:38:54;24.83;;;18.00;;
6111;SDS011;3086;48.802;9.394;2023-02-14T16:42:17;29.83;;;21.37;;
6111;SDS011;3086;48.802;9.394;2023-02-14T16:45:39;27.43;;;20.70;;
6111;SDS011;3086;48.802;9.394;2023-02-14T16:49:01;26.33;;;18.27;;
6111;SDS011;3086;48.802;9.394;2023-02-14T16:52:24;26.47;;;18.70;;
6111;SDS011;3086;48.802;9.394;2023-02-14T16:55:48;24.13;;;18.20;;
6111;SDS011;3086;48.802;9.394;2023-02-14T16:59:10;28.43;;;19.53;;
6111;SDS011;3086;48.802;9.394;2023-02-14T17:02:32;24.67;;;18.10;;
6111;SDS011;3086;48.802;9.394;2023-02-14T17:05:54;26.43;;;18.27;;
6111;SDS011;3086;48.802;9.394;2023-02-14T17:09:16;27.17;;;20.37;;
6111;SDS011;3086;48.802;9.394;2023-02-14T17:12:41;26.97;;;18.97;;
6111;SDS011;3086;48.802;9.394;2023-02-14T17:16:04;28.07;;;20.50;;
6111;SDS011;3086;48.802;9.394;2023-02-14T17:19:26;23.73;;;17.83;;
6111;SDS011;3086;48.802;9.394;2023-02-14T17:22:48;30.80;;;21.53;;
6111;SDS011;3086;48.802;9.394;2023-02-14T17:26:09;31.57;;;18.80;;
6111;SDS011;3086;48.802;9.394;2023-02-14T17:29:32;28.40;;;17.93;;
6111;SDS011;3086;48.802;9.394;2023-02-14T17:32:54;28.73;;;20.40;;
6111;SDS011;3086;48.802;9.394;2023-02-14T17:36:15;39.87;;;26.20;;
6111;SDS011;3086;48.802;9.394;2023-02-14T17:39:37;31.20;;;20.87;;
6111;SDS011;3086;48.802;9.394;2023-02-14T17:42:58;27.90;;;20.20;;
6111;SDS011;3086;48.802;9.394;2023-02-14T17:46:21;28.50;;;19.80;;
6111;SDS011;3086;48.802;9.394;2023-02-14T17:49:43;28.57;;;19.60;;
6111;SDS011;3086;48.802;9.394;2023-02-14T17:53:06;25.77;;;17.97;;
6111;SDS011;3086;48.802;9.394;2023-02-14T17:56:28;28.00;;;19.50;;
6111;SDS011;3086;48.802;9.394;2023-02-14T17:59:49;32.53;;;21.03;;
6111;SDS011;3086;48.802;9.394;2023-02-14T18:03:12;27.47;;;18.77;;
6111;SDS011;3086;48.802;9.394;2023-02-14T18:06:34;31.60;;;20.87;;
6111;SDS011;3086;48.802;9.394;2023-02-14T18:09:56;35.00;;;22.43;;
6111;SDS011;3086;48.802;9.394;2023-02-14T18:13:17;34.53;;;22.60;;
6111;SDS011;3086;48.802;9.394;2023-02-14T18:16:39;30.77;;;20.97;;
6111;SDS011;3086;48.802;9.394;2023-02-14T18:20:02;30.47;;;20.37;;
6111;SDS011;3086;48.802;9.394;2023-02-14T18:23:24;30.00;;;21.90;;
6111;SDS011;3086;48.802;9.394;2023-02-14T18:26:46;36.80;;;21.60;;
6111;SDS011;3086;48.802;9.394;2023-02-14T18:30:08;32.17;;;20.57;;
6111;SDS011;3086;48.802;9.394;2023-02-14T18:33:30;39.73;;;23.73;;
6111;SDS011;3086;48.802;9.394;2023-02-14T18:36:53;39.57;;;24.57;;
6111;SDS011;3086;48.802;9.394;2023-02-14T18:40:15;41.97;;;24.67;;
6111;SDS011;3086;48.802;9.394;2023-02-14T18:43:39;71.37;;;37.43;;
6111;SDS011;3086;48.802;9.394;2023-02-14T18:47:01;38.43;;;24.23;;
6111;SDS011;3086;48.802;9.394;2023-02-14T18:50:22;29.70;;;20.10;;
6111;SDS011;3086;48.802;9.394;2023-02-14T18:53:45;34.67;;;21.63;;
6111;SDS011;3086;48.802;9.394;2023-02-14T18:57:09;33.97;;;23.07;;
6111;SDS011;3086;48.802;9.394;2023-02-14T19:00:31;35.67;;;22.97;;
6111;SDS011;3086;48.802;9.394;2023-02-14T19:03:52;33.67;;;22.83;;
6111;SDS011;3086;48.802;9.394;2023-02-14T19:07:14;30.53;;;19.90;;
6111;SDS011;3086;48.802;9.394;2023-02-14T19:10:37;37.20;;;24.90;;
6111;SDS011;3086;48.802;9.394;2023-02-14T19:13:59;27.57;;;19.43;;
6111;SDS011;3086;48.802;9.394;2023-02-14T19:17:21;28.97;;;20.30;;
6111;SDS011;3086;48.802;9.394;2023-02-14T19:20:42;29.07;;;19.60;;
6111;SDS011;3086;48.802;9.394;2023-02-14T19:24:05;29.00;;;20.43;;
6111;SDS011;3086;48.802;9.394;2023-02-14T19:27:28;29.70;;;19.50;;
6111;SDS011;3086;48.802;9.394;2023-02-14T19:30:49;33.23;;;20.00;;
6111;SDS011;3086;48.802;9.394;2023-02-14T19:34:15;27.17;;;19.40;;
6111;SDS011;3086;48.802;9.394;2023-02-14T19:37:37;32.03;;;19.87;;
6111;SDS011;3086;48.802;9.394;2023-02-14T19:40:58;27.90;;;18.70;;
6111;SDS011;3086;48.802;9.394;2023-02-14T19:44:21;30.10;;;19.57;;
6111;SDS011;3086;48.802;9.394;2023-02-14T19:47:44;29.00;;;19.70;;
6111;SDS011;3086;48.802;9.394;2023-02-14T19:51:06;31.60;;;20.60;;
6111;SDS011;3086;48.802;9.394;2023-02-14T19:54:28;39.87;;;21.10;;
6111;SDS011;3086;48.802;9.394;2023-02-14T19:57:49;37.50;;;22.50;;
6111;SDS011;3086;48.802;9.394;2023-02-14T20:01:13;32.37;;;21.07;;
6111;SDS011;3086;48.802;9.394;2023-02-14T20:04:42;32.13;;;20.50;;
6111;SDS011;3086;48.802;9.394;2023-02-14T20:08:04;33.73;;;21.17;;
6111;SDS011;3086;48.802;9.394;2023-02-14T20:11:28;32.10;;;20.27;;
6111;SDS011;3086;48.802;9.394;2023-02-14T20:14:50;36.23;;;21.20;;
6111;SDS011;3086;48.802;9.394;2023-02-14T20:18:14;35.07;;;22.70;;
6111;SDS011;3086;48.802;9.394;2023-02-14T20:21:36;36.10;;;22.57;;
6111;SDS011;3086;48.802;9.394;2023-02-14T20:24:58;33.70;;;21.13;;
6111;SDS011;3086;48.802;9.394;2023-02-14T20:28:20;29.20;;;20.53;;
6111;SDS011;3086;48.802;9.394;2023-02-14T20:31:42;33.43;;;19.50;;
6111;SDS011;3086;48.802;9.394;2023-02-14T20:35:06;35.73;;;21.50;;
6111;SDS011;3086;48.802;9.394;2023-02-14T20:38:28;40.60;;;25.17;;
6111;SDS011;3086;48.802;9.394;2023-02-14T20:41:49;39.60;;;22.60;;
6111;SDS011;3086;48.802;9.394;2023-02-14T20:45:12;34.50;;;22.30;;
6111;SDS011;3086;48.802;9.394;2023-02-14T20:48:34;32.10;;;21.60;;
6111;SDS011;3086;48.802;9.394;2023-02-14T20:51:57;97.37;;;44.27;;